sensor_id;sensor_type;location;lat;lon;timestamp;temperature;humidity
25248;DHT22;13191;47.472;11.214;2023-11-19T00:02:07;4.50;99.90
25248;DHT22;13191;47.472;11.214;2023-11-19T00:04:36;4.50;99.90
25248;DHT22;13191;47.472;11.214;2023-11-19T00:07:03;4.60;99.90
25248;DHT22;13191;47.472;11.214;2023-11-19T00:09:30;4.60;99.90
25248;DHT22;13191;47.472;11.214;2023-11-19T00:11:57;4.60;99.90
25248;DHT22;13191;47.472;11.214;2023-11-19T00:14:23;4.60;99.90
25248;DHT22;13191;47.472;11.214;2023-11-19T00:16:49;4.50;99.90
25248;DHT22;13191;47.472;11.214;2023-11-19T00:19:16;4.50;99.90
25248;DHT22;13191;47.472;11.214;2023-11-19T00:21:42;4.50;99.90
25248;DHT22;13191;47.472;11.214;2023-11-19T00:24:08;4.60;99.90
25248;DHT22;13191;47.472;11.214;2023-11-19T00:26:33;4.60;99.90
25248;DHT22;13191;47.472;11.214;2023-11-19T00:28:59;4.60;99.90
25248;DHT22;13191;47.472;11.214;2023-11-19T00:31:25;4.60;99.90
25248;DHT22;13191;47.472;11.214;2023-11-19T00:33:53;4.60;99.90
25248;DHT22;13191;47.472;11.214;2023-11-19T00:36:19;4.40;99.90
25248;DHT22;13191;47.472;11.214;2023-11-19T00:38:44;4.30;99.90
25248;DHT22;13191;47.472;11.214;2023-11-19T00:41:10;4.30;99.90
25248;DHT22;13191;47.472;11.214;2023-11-19T00:43:35;4.10;99.90
25248;DHT22;13191;47.472;11.214;2023-11-19T00:46:01;4.20;99.90
25248;DHT22;13191;47.472;11.214;2023-11-19T00:48:29;4.20;99.90
25248;DHT22;13191;47.472;11.214;2023-11-19T00:50:55;4.20;99.90
25248;DHT22;13191;47.472;11.214;2023-11-19T00:53:20;4.20;99.90
25248;DHT22;13191;47.472;11.214;2023-11-19T00:55:46;4.30;99.90
25248;DHT22;13191;47.472;11.214;2023-11-19T00:58:11;4.30;99.90
25248;DHT22;13191;47.472;11.214;2023-11-19T01:00:37;4.20;99.90
25248;DHT22;13191;47.472;11.214;2023-11-19T01:03:02;4.20;99.90
25248;DHT22;13191;47.472;11.214;2023-11-19T01:05:28;4.30;99.90
25248;DHT22;13191;47.472;11.214;2023-11-19T01:07:54;4.30;99.90
25248;DHT22;13191;47.472;11.214;2023-11-19T01:10:20;4.30;99.90
25248;DHT22;13191;47.472;11.214;2023-11-19T01:12:46;4.30;99.90
25248;DHT22;13191;47.472;11.214;2023-11-19T01:15:11;4.40;99.90
25248;DHT22;13191;47.472;11.214;2023-11-19T01:17:38;4.40;99.90
25248;DHT22;13191;47.472;11.214;2023-11-19T01:20:04;4.40;99.90
25248;DHT22;13191;47.472;11.214;2023-11-19T01:22:32;4.50;99.90
25248;DHT22;13191;47.472;11.214;2023-11-19T01:24:57;4.50;99.90
25248;DHT22;13191;47.472;11.214;2023-11-19T01:27:24;4.50;99.90
25248;DHT22;13191;47.472;11.214;2023-11-19T01:29:50;4.50;99.90
25248;DHT22;13191;47.472;11.214;2023-11-19T01:32:15;4.60;99.90
25248;DHT22;13191;47.472;11.214;2023-11-19T01:34:41;4.60;99.90
25248;DHT22;13191;47.472;11.214;2023-11-19T01:37:07;4.60;99.90
25248;DHT22;13191;47.472;11.214;2023-11-19T01:39:34;4.70;99.90
25248;DHT22;13191;47.472;11.214;2023-11-19T01:42:00;4.60;99.90
25248;DHT22;13191;47.472;11.214;2023-11-19T01:44:26;4.70;99.90
25248;DHT22;13191;47.472;11.214;2023-11-19T01:46:51;4.60;99.90
25248;DHT22;13191;47.472;11.214;2023-11-19T01:49:17;4.60;99.90
25248;DHT22;13191;47.472;11.214;2023-11-19T01:51:45;4.70;99.90
25248;DHT22;13191;47.472;11.214;2023-11-19T01:54:12;4.60;99.90
25248;DHT22;13191;47.472;11.214;2023-11-19T01:56:39;4.70;99.90
25248;DHT22;13191;47.472;11.214;2023-11-19T01:59:10;4.70;99.90
25248;DHT22;13191;47.472;11.214;2023-11-19T02:01:37;4.70;99.90
25248;DHT22;13191;47.472;11.214;2023-11-19T02:04:06;4.80;99.90
25248;DHT22;13191;47.472;11.214;2023-11-19T02:06:33;4.80;99.90
25248;DHT22;13191;47.472;11.214;2023-11-19T02:09:00;4.70;99.90
25248;DHT22;13191;47.472;11.214;2023-11-19T02:11:26;4.70;99.90
25248;DHT22;13191;47.472;11.214;2023-11-19T02:13:58;4.70;99.90
25248;DHT22;13191;47.472;11.214;2023-11-19T02:16:23;4.70;99.90
25248;DHT22;13191;47.472;11.214;2023-11-19T02:18:49;4.70;99.90
25248;DHT22;13191;47.472;11.214;2023-11-19T02:21:14;4.70;99.90
25248;DHT22;13191;47.472;11.214;2023-11-19T02:23:40;4.80;99.90
25248;DHT22;13191;47.472;11.214;2023-11-19T02:26:26;4.80;99.90
25248;DHT22;13191;47.472;11.214;2023-11-19T02:28:53;4.80;99.90
25248;DHT22;13191;47.472;11.214;2023-11-19T02:31:19;4.80;99.90
25248;DHT22;13191;47.472;11.214;2023-11-19T02:33:45;4.80;99.90
25248;DHT22;13191;47.472;11.214;2023-11-19T02:36:11;4.80;99.90
25248;DHT22;13191;47.472;11.214;2023-11-19T02:38:36;4.80;99.90
25248;DHT22;13191;47.472;11.214;2023-11-19T02:41:06;4.80;99.90
25248;DHT22;13191;47.472;11.214;2023-11-19T02:43:33;4.80;99.90
25248;DHT22;13191;47.472;11.214;2023-11-19T02:46:02;4.80;99.90
25248;DHT22;13191;47.472;11.214;2023-11-19T02:48:30;4.80;99.90
25248;DHT22;13191;47.472;11.214;2023-11-19T02:50:56;4.80;99.90
25248;DHT22;13191;47.472;11.214;2023-11-19T02:53:24;4.80;99.90
25248;DHT22;13191;47.472;11.214;2023-11-19T02:55:50;4.70;99.90
25248;DHT22;13191;47.472;11.214;2023-11-19T02:58:16;4.80;99.90
25248;DHT22;13191;47.472;11.214;2023-11-19T03:00:45;4.80;99.90
25248;DHT22;13191;47.472;11.214;2023-11-19T03:03:22;4.80;99.90
25248;DHT22;13191;47.472;11.214;2023-11-19T03:05:51;4.80;99.90
25248;DHT22;13191;47.472;11.214;2023-11-19T03:08:17;4.80;99.90
25248;DHT22;13191;47.472;11.214;2023-11-19T03:10:43;4.90;99.90
25248;DHT22;13191;47.472;11.214;2023-11-19T03:13:13;4.80;99.90
25248;DHT22;13191;47.472;11.214;2023-11-19T03:15:42;4.80;99.90
25248;DHT22;13191;47.472;11.214;2023-11-19T03:18:08;4.70;99.90
25248;DHT22;13191;47.472;11.214;2023-11-19T03:20:33;4.70;99.90
25248;DHT22;13191;47.472;11.214;2023-11-19T03:22:59;4.70;99.90
25248;DHT22;13191;47.472;11.214;2023-11-19T03:25:27;4.60;99.90
25248;DHT22;13191;47.472;11.214;2023-11-19T03:27:58;4.70;99.90
25248;DHT22;13191;47.472;11.214;2023-11-19T03:30:24;4.70;99.90
25248;DHT22;13191;47.472;11.214;2023-11-19T03:32:50;4.70;99.90
25248;DHT22;13191;47.472;11.214;2023-11-19T03:35:16;4.70;99.90
25248;DHT22;13191;47.472;11.214;2023-11-19T03:37:41;4.80;99.90
25248;DHT22;13191;47.472;11.214;2023-11-19T03:40:09;4.80;99.90
25248;DHT22;13191;47.472;11.214;2023-11-19T03:42:35;4.80;99.90
25248;DHT22;13191;47.472;11.214;2023-11-19T03:45:01;4.80;99.90
25248;DHT22;13191;47.472;11.214;2023-11-19T03:47:26;4.90;99.90
25248;DHT22;13191;47.472;11.214;2023-11-19T03:49:52;4.90;99.90
25248;DHT22;13191;47.472;11.214;2023-11-19T03:52:18;4.90;99.90
25248;DHT22;13191;47.472;11.214;2023-11-19T03:54:45;4.90;99.90
25248;DHT22;13191;47.472;11.214;2023-11-19T03:57:14;4.80;99.90
25248;DHT22;13191;47.472;11.214;2023-11-19T03:59:41;4.70;99.90
25248;DHT22;13191;47.472;11.214;2023-11-19T04:02:06;4.80;99.90
25248;DHT22;13191;47.472;11.214;2023-11-19T04:04:32;4.80;99.90
25248;DHT22;13191;47.472;11.214;2023-11-19T04:06:58;4.90;99.90
25248;DHT22;13191;47.472;11.214;2023-11-19T04:09:26;4.80;99.90
25248;DHT22;13191;47.472;11.214;2023-11-19T04:11:51;4.80;99.90
25248;DHT22;13191;47.472;11.214;2023-11-19T04:14:17;4.80;99.90
25248;DHT22;13191;47.472;11.214;2023-11-19T04:16:44;4.80;99.90
25248;DHT22;13191;47.472;11.214;2023-11-19T04:19:11;4.80;99.90
25248;DHT22;13191;47.472;11.214;2023-11-19T04:21:37;4.80;99.90
25248;DHT22;13191;47.472;11.214;2023-11-19T04:24:02;4.90;99.90
25248;DHT22;13191;47.472;11.214;2023-11-19T04:26:28;4.90;99.90
25248;DHT22;13191;47.472;11.214;2023-11-19T04:28:53;4.90;99.90
25248;DHT22;13191;47.472;11.214;2023-11-19T04:31:19;4.80;99.90
25248;DHT22;13191;47.472;11.214;2023-11-19T04:33:45;4.80;99.90
25248;DHT22;13191;47.472;11.214;2023-11-19T04:36:10;4.90;99.90
25248;DHT22;13191;47.472;11.214;2023-11-19T04:38:37;4.80;99.90
25248;DHT22;13191;47.472;11.214;2023-11-19T04:41:04;4.90;99.90
25248;DHT22;13191;47.472;11.214;2023-11-19T04:43:31;4.90;99.90
25248;DHT22;13191;47.472;11.214;2023-11-19T04:45:57;4.90;99.90
25248;DHT22;13191;47.472;11.214;2023-11-19T04:48:23;4.90;99.90
25248;DHT22;13191;47.472;11.214;2023-11-19T04:50:48;4.80;99.90
25248;DHT22;13191;47.472;11.214;2023-11-19T04:53:15;4.90;99.90
25248;DHT22;13191;47.472;11.214;2023-11-19T04:55:41;4.90;99.90
25248;DHT22;13191;47.472;11.214;2023-11-19T04:58:06;4.80;99.90
25248;DHT22;13191;47.472;11.214;2023-11-19T05:00:32;4.70;99.90
25248;DHT22;13191;47.472;11.214;2023-11-19T05:02:58;4.80;99.90
25248;DHT22;13191;47.472;11.214;2023-11-19T05:05:23;4.70;99.90
25248;DHT22;13191;47.472;11.214;2023-11-19T05:07:49;4.70;99.90
25248;DHT22;13191;47.472;11.214;2023-11-19T05:10:15;4.80;99.90
25248;DHT22;13191;47.472;11.214;2023-11-19T05:12:40;4.90;99.90
25248;DHT22;13191;47.472;11.214;2023-11-19T05:15:07;4.90;99.90
25248;DHT22;13191;47.472;11.214;2023-11-19T05:17:33;4.90;99.90
25248;DHT22;13191;47.472;11.214;2023-11-19T05:19:58;4.80;99.90
25248;DHT22;13191;47.472;11.214;2023-11-19T05:22:24;4.80;99.90
25248;DHT22;13191;47.472;11.214;2023-11-19T05:24:49;4.80;99.90
25248;DHT22;13191;47.472;11.214;2023-11-19T05:27:15;5.00;99.90
25248;DHT22;13191;47.472;11.214;2023-11-19T05:29:40;5.00;99.90
25248;DHT22;13191;47.472;11.214;2023-11-19T05:32:07;5.10;99.90
25248;DHT22;13191;47.472;11.214;2023-11-19T05:34:32;5.10;99.90
25248;DHT22;13191;47.472;11.214;2023-11-19T05:36:58;5.10;99.90
25248;DHT22;13191;47.472;11.214;2023-11-19T05:39:23;5.20;99.90
25248;DHT22;13191;47.472;11.214;2023-11-19T05:41:52;5.20;99.90
25248;DHT22;13191;47.472;11.214;2023-11-19T05:44:17;5.20;99.90
25248;DHT22;13191;47.472;11.214;2023-11-19T05:46:44;5.30;99.90
25248;DHT22;13191;47.472;11.214;2023-11-19T05:49:10;5.30;99.90
25248;DHT22;13191;47.472;11.214;2023-11-19T05:51:40;5.30;99.90
25248;DHT22;13191;47.472;11.214;2023-11-19T05:54:10;5.40;99.90
25248;DHT22;13191;47.472;11.214;2023-11-19T05:56:36;5.40;99.90
25248;DHT22;13191;47.472;11.214;2023-11-19T05:59:01;5.40;99.90
25248;DHT22;13191;47.472;11.214;2023-11-19T06:01:29;5.40;99.90
25248;DHT22;13191;47.472;11.214;2023-11-19T06:03:55;5.50;99.90
25248;DHT22;13191;47.472;11.214;2023-11-19T06:06:20;5.50;99.90
25248;DHT22;13191;47.472;11.214;2023-11-19T06:08:46;5.60;99.90
25248;DHT22;13191;47.472;11.214;2023-11-19T06:11:12;5.60;99.90
25248;DHT22;13191;47.472;11.214;2023-11-19T06:13:44;5.70;99.90
25248;DHT22;13191;47.472;11.214;2023-11-19T06:16:10;5.70;99.90
25248;DHT22;13191;47.472;11.214;2023-11-19T06:18:36;5.70;99.90
25248;DHT22;13191;47.472;11.214;2023-11-19T06:21:02;5.80;99.90
25248;DHT22;13191;47.472;11.214;2023-11-19T06:23:27;5.80;99.90
25248;DHT22;13191;47.472;11.214;2023-11-19T06:25:53;5.80;99.90
25248;DHT22;13191;47.472;11.214;2023-11-19T06:28:18;5.90;99.90
25248;DHT22;13191;47.472;11.214;2023-11-19T06:30:44;5.90;99.90
25248;DHT22;13191;47.472;11.214;2023-11-19T06:33:13;6.00;99.90
25248;DHT22;13191;47.472;11.214;2023-11-19T06:35:38;6.00;99.90
25248;DHT22;13191;47.472;11.214;2023-11-19T06:38:04;6.10;99.90
25248;DHT22;13191;47.472;11.214;2023-11-19T06:40:30;6.10;99.90
25248;DHT22;13191;47.472;11.214;2023-11-19T06:42:56;6.20;99.90
25248;DHT22;13191;47.472;11.214;2023-11-19T06:45:22;6.20;99.90
25248;DHT22;13191;47.472;11.214;2023-11-19T06:47:47;6.20;99.90
25248;DHT22;13191;47.472;11.214;2023-11-19T06:50:13;6.20;99.90
25248;DHT22;13191;47.472;11.214;2023-11-19T06:52:40;6.30;99.90
25248;DHT22;13191;47.472;11.214;2023-11-19T06:55:06;6.30;99.90
25248;DHT22;13191;47.472;11.214;2023-11-19T06:57:32;6.30;99.90
25248;DHT22;13191;47.472;11.214;2023-11-19T06:59:58;6.20;99.90
25248;DHT22;13191;47.472;11.214;2023-11-19T07:02:24;6.30;99.90
25248;DHT22;13191;47.472;11.214;2023-11-19T07:04:50;6.30;99.90
25248;DHT22;13191;47.472;11.214;2023-11-19T07:07:16;6.30;99.90
25248;DHT22;13191;47.472;11.214;2023-11-19T07:09:41;6.40;99.90
25248;DHT22;13191;47.472;11.214;2023-11-19T07:12:08;6.50;99.90
25248;DHT22;13191;47.472;11.214;2023-11-19T07:14:34;6.40;99.90
25248;DHT22;13191;47.472;11.214;2023-11-19T07:16:59;6.50;99.90
25248;DHT22;13191;47.472;11.214;2023-11-19T07:19:25;6.60;99.90
25248;DHT22;13191;47.472;11.214;2023-11-19T07:21:51;6.50;99.90
25248;DHT22;13191;47.472;11.214;2023-11-19T07:24:19;6.50;99.90
25248;DHT22;13191;47.472;11.214;2023-11-19T07:26:46;6.60;99.90
25248;DHT22;13191;47.472;11.214;2023-11-19T07:29:13;6.60;99.90
25248;DHT22;13191;47.472;11.214;2023-11-19T07:31:38;6.60;99.90
25248;DHT22;13191;47.472;11.214;2023-11-19T07:34:04;6.60;99.90
25248;DHT22;13191;47.472;11.214;2023-11-19T07:36:31;6.60;99.90
25248;DHT22;13191;47.472;11.214;2023-11-19T07:38:58;6.70;99.90
25248;DHT22;13191;47.472;11.214;2023-11-19T07:41:24;6.60;99.90
25248;DHT22;13191;47.472;11.214;2023-11-19T07:43:51;6.70;99.90
25248;DHT22;13191;47.472;11.214;2023-11-19T07:46:18;6.70;99.90
25248;DHT22;13191;47.472;11.214;2023-11-19T07:48:46;6.70;99.90
25248;DHT22;13191;47.472;11.214;2023-11-19T07:51:12;6.70;99.90
25248;DHT22;13191;47.472;11.214;2023-11-19T07:53:39;6.70;99.90
25248;DHT22;13191;47.472;11.214;2023-11-19T07:56:06;6.80;99.90
25248;DHT22;13191;47.472;11.214;2023-11-19T07:58:32;6.70;99.90
25248;DHT22;13191;47.472;11.214;2023-11-19T08:00:57;6.70;99.90
25248;DHT22;13191;47.472;11.214;2023-11-19T08:03:23;6.70;99.90
25248;DHT22;13191;47.472;11.214;2023-11-19T08:05:48;6.80;99.90
25248;DHT22;13191;47.472;11.214;2023-11-19T08:08:14;6.80;99.90
25248;DHT22;13191;47.472;11.214;2023-11-19T08:10:40;6.80;99.90
25248;DHT22;13191;47.472;11.214;2023-11-19T08:13:07;6.70;99.90
25248;DHT22;13191;47.472;11.214;2023-11-19T08:15:35;6.80;99.90
25248;DHT22;13191;47.472;11.214;2023-11-19T08:18:01;6.80;99.90
25248;DHT22;13191;47.472;11.214;2023-11-19T08:20:27;6.80;99.90
25248;DHT22;13191;47.472;11.214;2023-11-19T08:22:52;6.80;99.90
25248;DHT22;13191;47.472;11.214;2023-11-19T08:25:18;6.90;99.90
25248;DHT22;13191;47.472;11.214;2023-11-19T08:27:44;6.90;99.90
25248;DHT22;13191;47.472;11.214;2023-11-19T08:30:10;6.90;99.90
25248;DHT22;13191;47.472;11.214;2023-11-19T08:32:35;6.80;99.90
25248;DHT22;13191;47.472;11.214;2023-11-19T08:35:01;6.80;99.90
25248;DHT22;13191;47.472;11.214;2023-11-19T08:37:27;6.80;99.90
25248;DHT22;13191;47.472;11.214;2023-11-19T08:39:52;6.90;99.90
25248;DHT22;13191;47.472;11.214;2023-11-19T08:42:18;6.90;99.90
25248;DHT22;13191;47.472;11.214;2023-11-19T08:44:49;6.90;99.90
25248;DHT22;13191;47.472;11.214;2023-11-19T08:47:16;6.80;99.90
25248;DHT22;13191;47.472;11.214;2023-11-19T08:49:43;6.70;99.90
25248;DHT22;13191;47.472;11.214;2023-11-19T08:52:09;6.80;99.90
25248;DHT22;13191;47.472;11.214;2023-11-19T08:54:36;6.80;99.90
25248;DHT22;13191;47.472;11.214;2023-11-19T08:57:01;6.80;99.90
25248;DHT22;13191;47.472;11.214;2023-11-19T08:59:28;6.90;99.90
25248;DHT22;13191;47.472;11.214;2023-11-19T09:01:54;6.90;99.90
25248;DHT22;13191;47.472;11.214;2023-11-19T09:04:19;7.00;99.90
25248;DHT22;13191;47.472;11.214;2023-11-19T09:06:48;6.90;99.90
25248;DHT22;13191;47.472;11.214;2023-11-19T09:09:13;6.90;99.90
25248;DHT22;13191;47.472;11.214;2023-11-19T09:11:39;7.00;99.90
25248;DHT22;13191;47.472;11.214;2023-11-19T09:14:05;7.00;99.90
25248;DHT22;13191;47.472;11.214;2023-11-19T09:16:30;7.10;99.90
25248;DHT22;13191;47.472;11.214;2023-11-19T09:18:56;7.20;99.90
25248;DHT22;13191;47.472;11.214;2023-11-19T09:21:23;7.20;99.90
25248;DHT22;13191;47.472;11.214;2023-11-19T09:23:48;7.20;99.90
25248;DHT22;13191;47.472;11.214;2023-11-19T09:26:15;7.30;99.90
25248;DHT22;13191;47.472;11.214;2023-11-19T09:28:40;7.30;99.90
25248;DHT22;13191;47.472;11.214;2023-11-19T09:31:16;7.40;99.90
25248;DHT22;13191;47.472;11.214;2023-11-19T09:33:42;7.50;99.90
25248;DHT22;13191;47.472;11.214;2023-11-19T09:36:08;7.50;99.90
25248;DHT22;13191;47.472;11.214;2023-11-19T09:38:35;7.60;99.90
25248;DHT22;13191;47.472;11.214;2023-11-19T09:41:05;7.70;99.90
25248;DHT22;13191;47.472;11.214;2023-11-19T09:43:35;7.70;99.90
25248;DHT22;13191;47.472;11.214;2023-11-19T09:46:09;7.80;99.90
25248;DHT22;13191;47.472;11.214;2023-11-19T09:48:37;7.80;99.90
25248;DHT22;13191;47.472;11.214;2023-11-19T09:51:04;7.90;99.90
25248;DHT22;13191;47.472;11.214;2023-11-19T09:53:31;7.90;99.90
25248;DHT22;13191;47.472;11.214;2023-11-19T09:56:01;7.90;99.90
25248;DHT22;13191;47.472;11.214;2023-11-19T09:58:31;8.00;99.90
25248;DHT22;13191;47.472;11.214;2023-11-19T10:00:58;8.00;99.90
25248;DHT22;13191;47.472;11.214;2023-11-19T10:03:35;8.10;99.90
25248;DHT22;13191;47.472;11.214;2023-11-19T10:06:04;8.10;99.90
25248;DHT22;13191;47.472;11.214;2023-11-19T10:08:32;8.20;99.90
25248;DHT22;13191;47.472;11.214;2023-11-19T10:10:57;8.30;99.90
25248;DHT22;13191;47.472;11.214;2023-11-19T10:13:28;8.30;99.90
25248;DHT22;13191;47.472;11.214;2023-11-19T10:15:55;8.30;99.90
25248;DHT22;13191;47.472;11.214;2023-11-19T10:18:26;8.40;99.90
25248;DHT22;13191;47.472;11.214;2023-11-19T10:20:52;8.40;99.90
25248;DHT22;13191;47.472;11.214;2023-11-19T10:23:18;8.50;99.90
25248;DHT22;13191;47.472;11.214;2023-11-19T10:25:44;8.50;99.90
25248;DHT22;13191;47.472;11.214;2023-11-19T10:28:09;8.60;99.90
25248;DHT22;13191;47.472;11.214;2023-11-19T10:30:35;8.70;99.90
25248;DHT22;13191;47.472;11.214;2023-11-19T10:33:13;8.70;99.90
25248;DHT22;13191;47.472;11.214;2023-11-19T10:35:56;8.80;99.90
25248;DHT22;13191;47.472;11.214;2023-11-19T10:38:23;8.90;99.90
25248;DHT22;13191;47.472;11.214;2023-11-19T10:40:49;8.90;99.90
25248;DHT22;13191;47.472;11.214;2023-11-19T10:43:19;8.90;99.90
25248;DHT22;13191;47.472;11.214;2023-11-19T10:45:46;9.00;99.90
25248;DHT22;13191;47.472;11.214;2023-11-19T10:48:12;9.00;99.90
25248;DHT22;13191;47.472;11.214;2023-11-19T10:50:39;9.10;99.90
25248;DHT22;13191;47.472;11.214;2023-11-19T10:53:07;9.10;99.90
25248;DHT22;13191;47.472;11.214;2023-11-19T10:55:35;9.10;99.90
25248;DHT22;13191;47.472;11.214;2023-11-19T10:58:02;9.20;99.90
25248;DHT22;13191;47.472;11.214;2023-11-19T11:00:46;9.20;99.90
25248;DHT22;13191;47.472;11.214;2023-11-19T11:05:43;9.30;99.90
25248;DHT22;13191;47.472;11.214;2023-11-19T11:08:12;9.30;99.90
25248;DHT22;13191;47.472;11.214;2023-11-19T11:10:54;9.40;99.90
25248;DHT22;13191;47.472;11.214;2023-11-19T11:13:22;9.40;99.90
25248;DHT22;13191;47.472;11.214;2023-11-19T11:15:49;9.50;99.90
25248;DHT22;13191;47.472;11.214;2023-11-19T11:18:15;9.50;99.90
25248;DHT22;13191;47.472;11.214;2023-11-19T11:20:44;9.50;99.90
25248;DHT22;13191;47.472;11.214;2023-11-19T11:23:36;9.60;99.90
25248;DHT22;13191;47.472;11.214;2023-11-19T11:32:04;9.80;99.90
25248;DHT22;13191;47.472;11.214;2023-11-19T11:39:34;9.80;99.90
25248;DHT22;13191;47.472;11.214;2023-11-19T11:45:07;9.90;99.90
25248;DHT22;13191;47.472;11.214;2023-11-19T11:50:57;10.00;99.90
25248;DHT22;13191;47.472;11.214;2023-11-19T11:53:24;10.00;99.90
25248;DHT22;13191;47.472;11.214;2023-11-19T11:58:20;10.10;99.90
25248;DHT22;13191;47.472;11.214;2023-11-19T12:00:47;10.10;99.90
25248;DHT22;13191;47.472;11.214;2023-11-19T12:03:13;10.10;99.90
25248;DHT22;13191;47.472;11.214;2023-11-19T12:05:41;10.20;99.90
25248;DHT22;13191;47.472;11.214;2023-11-19T12:08:08;10.20;99.90
25248;DHT22;13191;47.472;11.214;2023-11-19T12:10:58;10.20;99.90
25248;DHT22;13191;47.472;11.214;2023-11-19T12:13:24;10.30;99.90
25248;DHT22;13191;47.472;11.214;2023-11-19T12:18:26;10.30;99.90
25248;DHT22;13191;47.472;11.214;2023-11-19T12:20:52;10.40;99.90
25248;DHT22;13191;47.472;11.214;2023-11-19T12:23:18;10.40;99.90
25248;DHT22;13191;47.472;11.214;2023-11-19T12:25:44;10.40;99.90
25248;DHT22;13191;47.472;11.214;2023-11-19T12:28:15;10.40;99.90
25248;DHT22;13191;47.472;11.214;2023-11-19T12:30:45;10.50;99.90
25248;DHT22;13191;47.472;11.214;2023-11-19T12:33:12;10.50;99.90
25248;DHT22;13191;47.472;11.214;2023-11-19T12:35:42;10.60;99.90
25248;DHT22;13191;47.472;11.214;2023-11-19T12:38:08;10.60;99.90
25248;DHT22;13191;47.472;11.214;2023-11-19T12:40:34;10.60;99.90
25248;DHT22;13191;47.472;11.214;2023-11-19T12:42:59;10.60;99.90
25248;DHT22;13191;47.472;11.214;2023-11-19T12:45:37;10.60;99.90
25248;DHT22;13191;47.472;11.214;2023-11-19T12:48:09;10.70;99.90
25248;DHT22;13191;47.472;11.214;2023-11-19T12:50:51;10.80;99.90
25248;DHT22;13191;47.472;11.214;2023-11-19T12:53:19;10.80;99.90
25248;DHT22;13191;47.472;11.214;2023-11-19T12:55:44;10.80;99.90
25248;DHT22;13191;47.472;11.214;2023-11-19T12:58:10;10.80;99.90
25248;DHT22;13191;47.472;11.214;2023-11-19T13:00:36;10.80;99.90
25248;DHT22;13191;47.472;11.214;2023-11-19T13:03:02;10.80;99.90
25248;DHT22;13191;47.472;11.214;2023-11-19T13:05:29;10.70;99.90
25248;DHT22;13191;47.472;11.214;2023-11-19T13:08:07;10.70;99.90
25248;DHT22;13191;47.472;11.214;2023-11-19T13:13:15;10.80;99.90
25248;DHT22;13191;47.472;11.214;2023-11-19T13:15:40;10.80;99.90
25248;DHT22;13191;47.472;11.214;2023-11-19T13:18:06;10.80;99.90
25248;DHT22;13191;47.472;11.214;2023-11-19T13:20:32;10.80;99.90
25248;DHT22;13191;47.472;11.214;2023-11-19T13:23:00;10.70;99.90
25248;DHT22;13191;47.472;11.214;2023-11-19T13:25:26;10.80;99.90
25248;DHT22;13191;47.472;11.214;2023-11-19T13:27:53;10.70;99.90
25248;DHT22;13191;47.472;11.214;2023-11-19T13:30:20;10.70;99.90
25248;DHT22;13191;47.472;11.214;2023-11-19T13:32:45;10.70;99.90
25248;DHT22;13191;47.472;11.214;2023-11-19T13:35:12;10.70;99.90
25248;DHT22;13191;47.472;11.214;2023-11-19T13:37:39;10.70;99.90
25248;DHT22;13191;47.472;11.214;2023-11-19T13:40:06;10.80;99.90
25248;DHT22;13191;47.472;11.214;2023-11-19T13:42:32;10.70;99.90
25248;DHT22;13191;47.472;11.214;2023-11-19T13:44:57;10.80;99.90
25248;DHT22;13191;47.472;11.214;2023-11-19T13:47:23;10.70;99.90
25248;DHT22;13191;47.472;11.214;2023-11-19T13:49:49;10.70;99.90
25248;DHT22;13191;47.472;11.214;2023-11-19T13:52:14;10.70;99.90
25248;DHT22;13191;47.472;11.214;2023-11-19T13:54:40;10.70;99.90
25248;DHT22;13191;47.472;11.214;2023-11-19T13:57:06;10.70;99.90
25248;DHT22;13191;47.472;11.214;2023-11-19T13:59:31;10.70;99.90
25248;DHT22;13191;47.472;11.214;2023-11-19T14:02:00;10.60;99.90
25248;DHT22;13191;47.472;11.214;2023-11-19T14:04:25;10.60;99.90
25248;DHT22;13191;47.472;11.214;2023-11-19T14:06:51;10.60;99.90
25248;DHT22;13191;47.472;11.214;2023-11-19T14:09:17;10.60;99.90
25248;DHT22;13191;47.472;11.214;2023-11-19T14:11:44;10.60;99.90
25248;DHT22;13191;47.472;11.214;2023-11-19T14:14:09;10.60;99.90
25248;DHT22;13191;47.472;11.214;2023-11-19T14:16:35;10.60;99.90
25248;DHT22;13191;47.472;11.214;2023-11-19T14:19:01;10.60;99.90
25248;DHT22;13191;47.472;11.214;2023-11-19T14:21:26;10.60;99.90
25248;DHT22;13191;47.472;11.214;2023-11-19T14:23:52;10.60;99.90
25248;DHT22;13191;47.472;11.214;2023-11-19T14:26:18;10.60;99.90
25248;DHT22;13191;47.472;11.214;2023-11-19T14:28:44;10.60;99.90
25248;DHT22;13191;47.472;11.214;2023-11-19T14:31:10;10.60;99.90
25248;DHT22;13191;47.472;11.214;2023-11-19T14:33:35;10.60;99.90
25248;DHT22;13191;47.472;11.214;2023-11-19T14:36:02;10.40;99.90
25248;DHT22;13191;47.472;11.214;2023-11-19T14:38:27;10.40;99.90
25248;DHT22;13191;47.472;11.214;2023-11-19T14:40:53;10.40;99.90
25248;DHT22;13191;47.472;11.214;2023-11-19T14:43:20;10.40;99.90
25248;DHT22;13191;47.472;11.214;2023-11-19T14:45:45;10.40;99.90
25248;DHT22;13191;47.472;11.214;2023-11-19T14:48:11;10.30;99.90
25248;DHT22;13191;47.472;11.214;2023-11-19T14:50:36;10.30;99.90
25248;DHT22;13191;47.472;11.214;2023-11-19T14:53:02;10.10;99.90
25248;DHT22;13191;47.472;11.214;2023-11-19T14:55:28;10.20;99.90
25248;DHT22;13191;47.472;11.214;2023-11-19T14:57:54;10.20;99.90
25248;DHT22;13191;47.472;11.214;2023-11-19T15:00:19;10.20;99.90
25248;DHT22;13191;47.472;11.214;2023-11-19T15:02:46;10.10;99.90
25248;DHT22;13191;47.472;11.214;2023-11-19T15:05:11;10.20;99.90
25248;DHT22;13191;47.472;11.214;2023-11-19T15:07:38;10.20;99.90
25248;DHT22;13191;47.472;11.214;2023-11-19T15:10:05;10.20;99.90
25248;DHT22;13191;47.472;11.214;2023-11-19T15:12:36;10.10;99.90
25248;DHT22;13191;47.472;11.214;2023-11-19T15:15:06;10.10;99.90
25248;DHT22;13191;47.472;11.214;2023-11-19T15:17:32;10.00;99.90
25248;DHT22;13191;47.472;11.214;2023-11-19T15:19:57;10.00;99.90
25248;DHT22;13191;47.472;11.214;2023-11-19T15:22:23;10.00;99.90
25248;DHT22;13191;47.472;11.214;2023-11-19T15:24:48;9.90;99.90
25248;DHT22;13191;47.472;11.214;2023-11-19T15:27:14;9.90;99.90
25248;DHT22;13191;47.472;11.214;2023-11-19T15:29:39;9.70;99.90
25248;DHT22;13191;47.472;11.214;2023-11-19T15:32:06;9.70;99.90
25248;DHT22;13191;47.472;11.214;2023-11-19T15:34:33;9.40;99.90
25248;DHT22;13191;47.472;11.214;2023-11-19T15:36:59;9.40;99.90
25248;DHT22;13191;47.472;11.214;2023-11-19T15:39:26;9.50;99.90
25248;DHT22;13191;47.472;11.214;2023-11-19T15:41:52;9.30;99.90
25248;DHT22;13191;47.472;11.214;2023-11-19T15:44:18;9.30;99.90
25248;DHT22;13191;47.472;11.214;2023-11-19T15:46:44;9.30;99.90
25248;DHT22;13191;47.472;11.214;2023-11-19T15:49:09;9.20;99.90
25248;DHT22;13191;47.472;11.214;2023-11-19T15:51:35;9.30;99.90
25248;DHT22;13191;47.472;11.214;2023-11-19T15:54:01;9.30;99.90